• Join FlightAware (Why Join?)
  • Login
  • US Flag 
10:47AM EST


 

Airport Tracker/Info


-or-


 

Live Flight TrackerFlight Track Log ✈ SKQ221 ✈ 25-Apr-2012 ✈ KCMH - KPWK

Flight Track Log - Related Links

Times and Time Zones

All times are in EDT time to prevent confusion due to time zone crossing. See the SKQ221 flight status page for this flight to view local times or setup timezone preferences in your user account.

Time Position Orientation Groundspeed Altitude Reporting Facility
EDT Latitude Longitude Course Direction KTS MPH feet Rate Location/Type
07:05PM 39.9947 -82.8822 360° North 120 138 1,100  Level Indianapolis Center
07:06PM 40.0450 -82.8817 360° North 139 160 3,000 1,320 Climbing Indianapolis Center
07:07PM 40.0825 -82.8814 329° Northwest 130 150 4,500 1,320 Climbing Indianapolis Center
07:08PM 40.1097 -82.9028 302° West 122 140 5,700 720 Climbing Indianapolis Center
07:09PM 40.1306 -82.9461 307° West 158 182 6,000 120 Climbing Indianapolis Center
07:10PM 40.1622 -83.0003 307° West 183 211 6,000  Level Indianapolis Center
07:11PM 40.1917 -83.0517 303° West 177 204 6,000  Level Indianapolis Center
07:12PM 40.2189 -83.1058 307° West 175 201 6,000  Level Indianapolis Center
07:13PM 40.2483 -83.1572 307° West 175 201 6,000 -120 Level Indianapolis Center
07:14PM 40.2672 -83.1897 303° West 186 214 5,800 -120 Descending Indianapolis Center
07:15PM 40.2944 -83.2442 306° West 186 214 5,800  Level Indianapolis Center
07:16PM 40.3217 -83.2931 305° West 186 214 5,800  Level Indianapolis Center
07:17PM 40.3489 -83.3447 305° West 181 208 5,800  Level Indianapolis Center
07:18PM 40.3781 -83.3989 305° West 181 208 5,800  Level Indianapolis Center
07:19PM 40.4053 -83.4508 305° West 176 203 5,900  Climbing Indianapolis Center
07:20PM 40.4325 -83.5025 306° West 176 203 5,900  Level Indianapolis Center
07:21PM 40.4617 -83.5544 303° West 176 203 5,900  Level Indianapolis Center
07:22PM 40.4886 -83.6089 304° West 176 203 5,900  Level Indianapolis Center
07:23PM 40.5156 -83.6608 306° West 176 203 6,000  Climbing Indianapolis Center
07:24PM 40.5428 -83.7100 304° West 176 203 6,000  Level Indianapolis Center
07:25PM 40.5697 -83.7619 304° West 176 203 6,000 -60 Level Indianapolis Center
07:26PM 40.5967 -83.8139 304° West 176 203 5,900 -60 Descending Indianapolis Center
07:27PM 40.6258 -83.8714 306° West 176 203 5,900  Level Indianapolis Center
07:28PM 40.6547 -83.9236 305° West 176 203 5,900  Level Indianapolis Center
07:29PM 40.6839 -83.9786 305° West 176 203 6,000  Climbing Indianapolis Center
07:30PM 40.7128 -84.0333 304° West 176 203 6,000  Level Indianapolis Center
07:31PM 40.7397 -84.0856 304° West 176 203 6,000 -60 Level Indianapolis Center
08:21PM 42.1500 -86.9333 289° West 196 226 3,900 -60 Descending Chicago TRACON
08:21PM 42.1667 -87.0000 270° West 193 222 3,900  Level Chicago TRACON
08:22PM 42.1667 -87.0667 270° West 189 217 3,900  Level Chicago TRACON
08:23PM 42.1667 -87.1333 270° West 193 222 3,900  Level Chicago TRACON
08:24PM 42.1667 -87.2000 285° West 195 224 3,900  Level Chicago TRACON
08:25PM 42.1833 -87.2833 270° West 192 221 3,900  Level Chicago TRACON
08:26PM 42.1833 -87.3500 289° West 187 215 3,900  Level Chicago TRACON
08:27PM 42.2000 -87.4167 270° West 185 213 3,900  Level Chicago TRACON
08:28PM 42.2000 -87.4833 289° West 181 208 3,900  Level Chicago TRACON
08:29PM 42.2167 -87.5500 294° West 178 205 3,900 -60 Level Chicago TRACON
08:30PM 42.2333 -87.6000 270° West 178 205 3,800 -360 Descending Chicago TRACON
08:31PM 42.2333 -87.6667 270° West 188 216 3,300 -420 Descending Chicago TRACON
08:32PM 42.2333 -87.7333 270° West 181 208 3,000 -420 Descending Chicago TRACON
08:33PM 42.2333 -87.8000 217° Southwest 180 207 2,500 -540 Descending Chicago TRACON
08:35PM 42.1833 -87.8500 246° West 175 201 1,900 -300 Descending Chicago TRACON
08:35PM 42.1667 -87.9000 200° South 143 165 2,000 -360 Climbing Chicago TRACON
08:36PM 42.1333 -87.9167 200° South 114 131 1,300 -720 Descending Chicago TRACON